sensor_id;sensor_type;location;lat;lon;timestamp;pressure;altitude;pressure_sealevel;temperature;humidity
40946;BME280;55635;50.264;11.918;2023-04-24T00:00:36;94520.84;;;12.22;99.26
40946;BME280;55635;50.264;11.918;2023-04-24T00:03:24;94537.88;;;12.51;98.59
40946;BME280;55635;50.264;11.918;2023-04-24T00:06:05;94529.31;;;12.49;98.01
40946;BME280;55635;50.264;11.918;2023-04-24T00:08:51;94526.91;;;12.47;96.85
40946;BME280;55635;50.264;11.918;2023-04-24T00:11:32;94521.75;;;12.34;98.25
40946;BME280;55635;50.264;11.918;2023-04-24T00:14:13;94519.38;;;12.44;97.40
40946;BME280;55635;50.264;11.918;2023-04-24T00:16:54;94521.38;;;12.31;97.92
40946;BME280;55635;50.264;11.918;2023-04-24T00:19:35;94512.38;;;12.14;98.75
40946;BME280;55635;50.264;11.918;2023-04-24T00:22:19;94522.84;;;12.27;97.86
40946;BME280;55635;50.264;11.918;2023-04-24T00:25:01;94516.34;;;12.23;98.05
40946;BME280;55635;50.264;11.918;2023-04-24T00:27:42;94512.88;;;12.40;97.39
40946;BME280;55635;50.264;11.918;2023-04-24T00:30:24;94517.44;;;12.33;97.28
40946;BME280;55635;50.264;11.918;2023-04-24T00:33:07;94509.09;;;12.30;97.15
40946;BME280;55635;50.264;11.918;2023-04-24T00:35:49;94515.38;;;12.17;98.31
40946;BME280;55635;50.264;11.918;2023-04-24T00:38:29;94516.69;;;12.26;98.73
40946;BME280;55635;50.264;11.918;2023-04-24T00:41:11;94513.09;;;12.21;97.84
40946;BME280;55635;50.264;11.918;2023-04-24T00:43:53;94517.25;;;12.17;99.07
40946;BME280;55635;50.264;11.918;2023-04-24T00:46:36;94517.75;;;12.07;98.80
40946;BME280;55635;50.264;11.918;2023-04-24T00:49:18;94511.19;;;12.28;98.14
40946;BME280;55635;50.264;11.918;2023-04-24T00:51:59;94518.91;;;12.29;98.51
40946;BME280;55635;50.264;11.918;2023-04-24T00:54:40;94514.06;;;12.08;98.56
40946;BME280;55635;50.264;11.918;2023-04-24T00:57:23;94509.41;;;12.40;97.41
40946;BME280;55635;50.264;11.918;2023-04-24T01:00:06;94511.66;;;12.54;95.67
40946;BME280;55635;50.264;11.918;2023-04-24T01:02:52;94513.53;;;12.18;97.61
40946;BME280;55635;50.264;11.918;2023-04-24T01:05:34;94510.81;;;12.06;98.51
40946;BME280;55635;50.264;11.918;2023-04-24T01:08:15;94516.19;;;12.36;97.33
40946;BME280;55635;50.264;11.918;2023-04-24T01:10:57;94512.28;;;12.20;97.70
40946;BME280;55635;50.264;11.918;2023-04-24T01:13:41;94510.88;;;11.99;98.79
40946;BME280;55635;50.264;11.918;2023-04-24T01:16:24;94516.25;;;12.29;97.95
40946;BME280;55635;50.264;11.918;2023-04-24T01:19:10;94524.59;;;12.15;97.11
40946;BME280;55635;50.264;11.918;2023-04-24T01:21:54;94519.53;;;12.31;96.57
40946;BME280;55635;50.264;11.918;2023-04-24T01:24:38;94523.06;;;12.07;97.44
40946;BME280;55635;50.264;11.918;2023-04-24T01:27:26;94524.72;;;11.83;99.01
40946;BME280;55635;50.264;11.918;2023-04-24T01:30:08;94530.00;;;12.08;97.84
40946;BME280;55635;50.264;11.918;2023-04-24T01:32:50;94526.75;;;12.06;97.96
40946;BME280;55635;50.264;11.918;2023-04-24T01:35:32;94527.44;;;12.02;97.13
40946;BME280;55635;50.264;11.918;2023-04-24T01:38:13;94523.22;;;12.12;97.42
40946;BME280;55635;50.264;11.918;2023-04-24T01:40:55;94518.47;;;11.96;97.46
40946;BME280;55635;50.264;11.918;2023-04-24T01:43:37;94524.75;;;11.59;99.56
40946;BME280;55635;50.264;11.918;2023-04-24T01:46:19;94524.88;;;11.70;98.93
40946;BME280;55635;50.264;11.918;2023-04-24T01:49:03;94514.72;;;11.85;97.70
40946;BME280;55635;50.264;11.918;2023-04-24T01:51:47;94524.91;;;11.64;98.06
40946;BME280;55635;50.264;11.918;2023-04-24T01:54:28;94513.16;;;11.78;97.10
40946;BME280;55635;50.264;11.918;2023-04-24T01:57:11;94506.75;;;11.85;96.21
40946;BME280;55635;50.264;11.918;2023-04-24T01:59:52;94508.97;;;11.88;96.01
40946;BME280;55635;50.264;11.918;2023-04-24T02:02:33;94510.78;;;11.70;96.45
40946;BME280;55635;50.264;11.918;2023-04-24T02:05:14;94502.31;;;11.55;97.03
40946;BME280;55635;50.264;11.918;2023-04-24T02:07:55;94494.66;;;11.46;97.67
40946;BME280;55635;50.264;11.918;2023-04-24T02:10:39;94503.41;;;11.22;98.63
40946;BME280;55635;50.264;11.918;2023-04-24T02:13:20;94498.16;;;11.16;99.26
40946;BME280;55635;50.264;11.918;2023-04-24T02:16:01;94491.91;;;11.28;98.35
40946;BME280;55635;50.264;11.918;2023-04-24T02:18:44;94495.38;;;11.29;98.12
40946;BME280;55635;50.264;11.918;2023-04-24T02:21:25;94489.34;;;11.22;98.24
40946;BME280;55635;50.264;11.918;2023-04-24T02:24:11;94487.31;;;11.17;98.94
40946;BME280;55635;50.264;11.918;2023-04-24T02:26:55;94486.34;;;11.12;99.37
40946;BME280;55635;50.264;11.918;2023-04-24T02:29:38;94498.66;;;11.06;99.23
40946;BME280;55635;50.264;11.918;2023-04-24T02:32:19;94503.63;;;11.21;99.19
40946;BME280;55635;50.264;11.918;2023-04-24T02:35:00;94504.16;;;11.29;98.60
40946;BME280;55635;50.264;11.918;2023-04-24T02:37:42;94501.84;;;11.39;98.32
40946;BME280;55635;50.264;11.918;2023-04-24T02:40:26;94497.66;;;11.25;99.37
40946;BME280;55635;50.264;11.918;2023-04-24T02:43:07;94499.72;;;11.23;99.64
40946;BME280;55635;50.264;11.918;2023-04-24T02:45:49;94499.56;;;10.93;100.00
40946;BME280;55635;50.264;11.918;2023-04-24T02:48:32;94503.19;;;10.99;100.00
40946;BME280;55635;50.264;11.918;2023-04-24T02:51:13;94497.41;;;11.09;100.00
40946;BME280;55635;50.264;11.918;2023-04-24T02:53:55;94501.19;;;11.19;100.00
40946;BME280;55635;50.264;11.918;2023-04-24T02:56:36;94502.59;;;10.97;100.00
40946;BME280;55635;50.264;11.918;2023-04-24T02:59:18;94492.25;;;11.14;100.00
40946;BME280;55635;50.264;11.918;2023-04-24T03:02:00;94491.81;;;11.41;98.81
40946;BME280;55635;50.264;11.918;2023-04-24T03:04:42;94480.31;;;11.47;98.42
40946;BME280;55635;50.264;11.918;2023-04-24T03:07:23;94479.84;;;11.32;98.79
40946;BME280;55635;50.264;11.918;2023-04-24T03:10:06;94467.31;;;11.21;98.70
40946;BME280;55635;50.264;11.918;2023-04-24T03:12:48;94470.44;;;11.12;98.68
40946;BME280;55635;50.264;11.918;2023-04-24T03:15:29;94469.63;;;11.11;98.72
40946;BME280;55635;50.264;11.918;2023-04-24T03:18:10;94468.94;;;10.98;100.00
40946;BME280;55635;50.264;11.918;2023-04-24T03:20:51;94468.41;;;11.07;99.42
40946;BME280;55635;50.264;11.918;2023-04-24T03:23:32;94474.09;;;11.35;97.81
40946;BME280;55635;50.264;11.918;2023-04-24T03:26:14;94460.72;;;11.48;96.94
40946;BME280;55635;50.264;11.918;2023-04-24T03:29:07;94459.84;;;11.55;94.77
40946;BME280;55635;50.264;11.918;2023-04-24T03:31:48;94456.06;;;11.44;95.10
40946;BME280;55635;50.264;11.918;2023-04-24T03:34:29;94439.56;;;11.42;94.99
40946;BME280;55635;50.264;11.918;2023-04-24T03:37:12;94455.78;;;11.52;95.00
40946;BME280;55635;50.264;11.918;2023-04-24T03:39:57;94452.53;;;11.68;93.96
40946;BME280;55635;50.264;11.918;2023-04-24T03:42:40;94458.13;;;11.85;93.22
40946;BME280;55635;50.264;11.918;2023-04-24T03:45:21;94456.78;;;12.12;92.08
40946;BME280;55635;50.264;11.918;2023-04-24T03:48:04;94458.41;;;12.13;91.56
40946;BME280;55635;50.264;11.918;2023-04-24T03:50:46;94455.47;;;12.03;91.56
40946;BME280;55635;50.264;11.918;2023-04-24T03:53:31;94451.22;;;11.59;94.23
40946;BME280;55635;50.264;11.918;2023-04-24T03:56:13;94455.19;;;11.68;94.58
40946;BME280;55635;50.264;11.918;2023-04-24T03:58:59;94467.69;;;11.68;94.52
40946;BME280;55635;50.264;11.918;2023-04-24T04:01:42;94471.38;;;11.67;94.81
40946;BME280;55635;50.264;11.918;2023-04-24T04:04:29;94464.66;;;11.64;95.81
40946;BME280;55635;50.264;11.918;2023-04-24T04:07:13;94466.25;;;11.47;96.76
40946;BME280;55635;50.264;11.918;2023-04-24T04:09:54;94462.25;;;11.38;96.73
40946;BME280;55635;50.264;11.918;2023-04-24T04:12:37;94468.53;;;11.43;97.17
40946;BME280;55635;50.264;11.918;2023-04-24T04:15:19;94458.78;;;11.37;98.36
40946;BME280;55635;50.264;11.918;2023-04-24T04:18:01;94467.53;;;11.38;97.45
40946;BME280;55635;50.264;11.918;2023-04-24T04:20:43;94461.75;;;11.47;98.03
40946;BME280;55635;50.264;11.918;2023-04-24T04:23:27;94456.06;;;11.44;97.86
40946;BME280;55635;50.264;11.918;2023-04-24T04:26:41;94455.09;;;11.14;99.36
40946;BME280;55635;50.264;11.918;2023-04-24T04:29:24;94456.59;;;11.53;97.43
40946;BME280;55635;50.264;11.918;2023-04-24T04:32:07;94469.09;;;11.27;98.06
40946;BME280;55635;50.264;11.918;2023-04-24T04:34:48;94457.22;;;11.30;98.72
40946;BME280;55635;50.264;11.918;2023-04-24T04:37:34;94465.22;;;11.48;97.02
40946;BME280;55635;50.264;11.918;2023-04-24T04:40:44;94464.69;;;11.39;97.51
40946;BME280;55635;50.264;11.918;2023-04-24T04:43:27;94466.25;;;11.22;98.38
40946;BME280;55635;50.264;11.918;2023-04-24T04:46:10;94465.63;;;11.02;98.84
40946;BME280;55635;50.264;11.918;2023-04-24T04:49:12;94462.03;;;11.15;98.18
40946;BME280;55635;50.264;11.918;2023-04-24T04:52:42;94461.13;;;11.27;98.52
40946;BME280;55635;50.264;11.918;2023-04-24T04:55:39;94462.28;;;11.31;97.93
40946;BME280;55635;50.264;11.918;2023-04-24T04:58:34;94473.09;;;11.12;98.10
40946;BME280;55635;50.264;11.918;2023-04-24T05:01:16;94484.19;;;11.27;98.25
40946;BME280;55635;50.264;11.918;2023-04-24T05:04:00;94473.78;;;11.25;97.88
40946;BME280;55635;50.264;11.918;2023-04-24T05:06:42;94480.56;;;11.46;97.52
40946;BME280;55635;50.264;11.918;2023-04-24T05:09:24;94488.03;;;11.56;95.98
40946;BME280;55635;50.264;11.918;2023-04-24T05:12:11;94486.13;;;11.38;96.83
40946;BME280;55635;50.264;11.918;2023-04-24T05:15:01;94485.66;;;11.66;95.41
40946;BME280;55635;50.264;11.918;2023-04-24T05:17:42;94489.03;;;11.55;95.83
40946;BME280;55635;50.264;11.918;2023-04-24T05:20:24;94487.50;;;11.65;95.30
40946;BME280;55635;50.264;11.918;2023-04-24T05:23:09;94493.69;;;11.59;94.06
40946;BME280;55635;50.264;11.918;2023-04-24T05:25:53;94493.88;;;11.39;96.53
40946;BME280;55635;50.264;11.918;2023-04-24T05:28:35;94496.06;;;11.24;96.07
40946;BME280;55635;50.264;11.918;2023-04-24T05:31:22;94483.84;;;11.17;97.97
40946;BME280;55635;50.264;11.918;2023-04-24T05:34:04;94494.41;;;11.23;97.25
40946;BME280;55635;50.264;11.918;2023-04-24T05:36:46;94500.00;;;11.40;97.00
40946;BME280;55635;50.264;11.918;2023-04-24T05:39:29;94503.41;;;11.72;96.36
40946;BME280;55635;50.264;11.918;2023-04-24T05:42:09;94486.94;;;11.38;95.25
40946;BME280;55635;50.264;11.918;2023-04-24T05:44:51;94495.16;;;11.55;94.41
40946;BME280;55635;50.264;11.918;2023-04-24T05:47:32;94501.22;;;11.62;94.32
40946;BME280;55635;50.264;11.918;2023-04-24T05:50:14;94493.19;;;11.69;93.58
40946;BME280;55635;50.264;11.918;2023-04-24T05:52:55;94504.66;;;11.44;94.97
40946;BME280;55635;50.264;11.918;2023-04-24T05:55:43;94497.53;;;11.88;93.58
40946;BME280;55635;50.264;11.918;2023-04-24T05:58:25;94506.06;;;11.47;95.69
40946;BME280;55635;50.264;11.918;2023-04-24T06:01:07;94513.03;;;11.41;95.63
40946;BME280;55635;50.264;11.918;2023-04-24T06:03:49;94500.25;;;11.57;95.78
40946;BME280;55635;50.264;11.918;2023-04-24T06:06:30;94501.56;;;11.47;95.45
40946;BME280;55635;50.264;11.918;2023-04-24T06:09:12;94501.16;;;11.69;94.21
40946;BME280;55635;50.264;11.918;2023-04-24T06:11:53;94505.50;;;11.63;94.45
40946;BME280;55635;50.264;11.918;2023-04-24T06:14:37;94490.75;;;11.74;94.43
40946;BME280;55635;50.264;11.918;2023-04-24T06:17:49;94501.56;;;11.47;95.16
40946;BME280;55635;50.264;11.918;2023-04-24T06:20:35;94500.00;;;11.40;95.22
40946;BME280;55635;50.264;11.918;2023-04-24T06:23:16;94499.81;;;11.60;94.69
40946;BME280;55635;50.264;11.918;2023-04-24T06:25:58;94497.22;;;11.96;92.84
40946;BME280;55635;50.264;11.918;2023-04-24T06:28:39;94501.38;;;11.92;93.13
40946;BME280;55635;50.264;11.918;2023-04-24T06:31:21;94501.75;;;11.95;93.49
40946;BME280;55635;50.264;11.918;2023-04-24T06:34:02;94490.38;;;11.64;92.91
40946;BME280;55635;50.264;11.918;2023-04-24T06:36:46;94496.34;;;12.02;93.22
40946;BME280;55635;50.264;11.918;2023-04-24T06:39:27;94493.16;;;11.75;94.53
40946;BME280;55635;50.264;11.918;2023-04-24T06:42:08;94495.44;;;12.08;92.20
40946;BME280;55635;50.264;11.918;2023-04-24T06:44:50;94498.78;;;12.22;90.74
40946;BME280;55635;50.264;11.918;2023-04-24T06:47:31;94492.59;;;12.10;92.52
40946;BME280;55635;50.264;11.918;2023-04-24T06:50:13;94490.88;;;12.33;92.81
40946;BME280;55635;50.264;11.918;2023-04-24T06:52:57;94490.56;;;12.23;90.80
40946;BME280;55635;50.264;11.918;2023-04-24T06:55:37;94488.59;;;11.82;90.48
40946;BME280;55635;50.264;11.918;2023-04-24T06:58:18;94483.28;;;12.19;92.87
40946;BME280;55635;50.264;11.918;2023-04-24T07:01:01;94490.38;;;12.25;91.49
40946;BME280;55635;50.264;11.918;2023-04-24T07:03:42;94485.88;;;12.07;90.28
40946;BME280;55635;50.264;11.918;2023-04-24T07:06:23;94482.34;;;12.13;92.20
40946;BME280;55635;50.264;11.918;2023-04-24T07:09:05;94487.34;;;12.21;89.99
40946;BME280;55635;50.264;11.918;2023-04-24T07:11:46;94495.09;;;12.71;89.84
40946;BME280;55635;50.264;11.918;2023-04-24T07:14:27;94485.84;;;12.43;90.35
40946;BME280;55635;50.264;11.918;2023-04-24T07:17:07;94484.16;;;12.90;88.20
40946;BME280;55635;50.264;11.918;2023-04-24T07:19:48;94497.00;;;12.16;88.19
40946;BME280;55635;50.264;11.918;2023-04-24T07:22:30;94487.91;;;12.05;88.90
40946;BME280;55635;50.264;11.918;2023-04-24T07:25:11;94491.09;;;12.91;86.17
40946;BME280;55635;50.264;11.918;2023-04-24T07:27:57;94484.84;;;12.86;85.19
40946;BME280;55635;50.264;11.918;2023-04-24T07:30:38;94489.53;;;13.02;85.71
40946;BME280;55635;50.264;11.918;2023-04-24T07:33:19;94493.94;;;12.48;87.74
40946;BME280;55635;50.264;11.918;2023-04-24T07:36:00;94499.72;;;12.45;88.80
40946;BME280;55635;50.264;11.918;2023-04-24T07:38:42;94482.16;;;12.26;88.21
40946;BME280;55635;50.264;11.918;2023-04-24T07:41:23;94489.75;;;12.41;88.41
40946;BME280;55635;50.264;11.918;2023-04-24T07:44:05;94503.28;;;11.85;89.91
40946;BME280;55635;50.264;11.918;2023-04-24T07:46:46;94491.63;;;11.86;93.02
40946;BME280;55635;50.264;11.918;2023-04-24T07:49:30;94502.41;;;12.09;89.43
40946;BME280;55635;50.264;11.918;2023-04-24T07:52:11;94504.13;;;12.51;87.63
40946;BME280;55635;50.264;11.918;2023-04-24T07:54:52;94501.50;;;12.15;86.27
40946;BME280;55635;50.264;11.918;2023-04-24T07:57:39;94508.03;;;12.67;84.90
40946;BME280;55635;50.264;11.918;2023-04-24T08:00:20;94506.63;;;13.36;84.84
40946;BME280;55635;50.264;11.918;2023-04-24T08:03:02;94506.25;;;13.21;85.10
40946;BME280;55635;50.264;11.918;2023-04-24T08:05:43;94516.22;;;13.25;83.59
40946;BME280;55635;50.264;11.918;2023-04-24T08:08:25;94513.34;;;13.73;81.43
40946;BME280;55635;50.264;11.918;2023-04-24T08:11:06;94517.78;;;14.02;81.14
40946;BME280;55635;50.264;11.918;2023-04-24T08:13:47;94518.00;;;13.66;80.96
40946;BME280;55635;50.264;11.918;2023-04-24T08:16:29;94508.16;;;14.01;80.11
40946;BME280;55635;50.264;11.918;2023-04-24T08:19:11;94529.38;;;13.96;78.76
40946;BME280;55635;50.264;11.918;2023-04-24T08:21:52;94521.00;;;14.28;75.74
40946;BME280;55635;50.264;11.918;2023-04-24T08:24:32;94531.78;;;14.21;74.54
40946;BME280;55635;50.264;11.918;2023-04-24T08:27:38;94542.50;;;15.01;74.80
40946;BME280;55635;50.264;11.918;2023-04-24T08:30:22;94545.22;;;15.34;68.63
40946;BME280;55635;50.264;11.918;2023-04-24T08:33:03;94542.44;;;15.12;67.48
40946;BME280;55635;50.264;11.918;2023-04-24T08:35:46;94546.19;;;15.56;66.55
40946;BME280;55635;50.264;11.918;2023-04-24T08:38:26;94542.34;;;14.79;69.65
40946;BME280;55635;50.264;11.918;2023-04-24T08:41:09;94551.25;;;14.45;64.97
40946;BME280;55635;50.264;11.918;2023-04-24T08:43:51;94547.75;;;14.44;66.28
40946;BME280;55635;50.264;11.918;2023-04-24T08:46:33;94550.78;;;14.25;67.22
40946;BME280;55635;50.264;11.918;2023-04-24T08:49:15;94547.97;;;14.31;65.06
40946;BME280;55635;50.264;11.918;2023-04-24T08:51:59;94557.53;;;14.15;66.42
40946;BME280;55635;50.264;11.918;2023-04-24T08:54:42;94558.63;;;14.31;68.42
40946;BME280;55635;50.264;11.918;2023-04-24T08:57:25;94559.38;;;14.78;67.54
40946;BME280;55635;50.264;11.918;2023-04-24T09:00:13;94553.78;;;15.19;64.17
40946;BME280;55635;50.264;11.918;2023-04-24T09:02:55;94561.38;;;14.83;65.13
40946;BME280;55635;50.264;11.918;2023-04-24T09:05:39;94552.00;;;14.68;63.24
40946;BME280;55635;50.264;11.918;2023-04-24T09:08:26;94555.06;;;14.89;64.74
40946;BME280;55635;50.264;11.918;2023-04-24T09:11:09;94554.81;;;15.47;62.25
40946;BME280;55635;50.264;11.918;2023-04-24T09:13:52;94556.56;;;15.41;61.37
40946;BME280;55635;50.264;11.918;2023-04-24T09:16:33;94548.19;;;15.21;59.39
40946;BME280;55635;50.264;11.918;2023-04-24T09:19:14;94549.09;;;15.71;61.98
40946;BME280;55635;50.264;11.918;2023-04-24T09:21:56;94558.25;;;15.92;59.05
40946;BME280;55635;50.264;11.918;2023-04-24T09:24:37;94556.28;;;15.88;57.03
40946;BME280;55635;50.264;11.918;2023-04-24T09:27:23;94558.66;;;15.67;58.05
40946;BME280;55635;50.264;11.918;2023-04-24T09:30:06;94551.53;;;15.00;60.03
40946;BME280;55635;50.264;11.918;2023-04-24T09:33:15;94566.09;;;15.49;60.14
40946;BME280;55635;50.264;11.918;2023-04-24T09:35:57;94557.78;;;15.05;55.74
40946;BME280;55635;50.264;11.918;2023-04-24T09:38:40;94568.47;;;14.65;56.98
40946;BME280;55635;50.264;11.918;2023-04-24T09:41:21;94580.44;;;14.28;60.05
40946;BME280;55635;50.264;11.918;2023-04-24T09:44:14;94571.75;;;14.96;59.30
40946;BME280;55635;50.264;11.918;2023-04-24T09:46:59;94567.19;;;14.80;56.58
40946;BME280;55635;50.264;11.918;2023-04-24T09:49:40;94587.72;;;13.63;57.89
40946;BME280;55635;50.264;11.918;2023-04-24T09:52:24;94591.00;;;14.23;57.43
40946;BME280;55635;50.264;11.918;2023-04-24T09:55:19;94575.44;;;13.74;60.29
40946;BME280;55635;50.264;11.918;2023-04-24T09:58:01;94579.03;;;13.68;63.20
40946;BME280;55635;50.264;11.918;2023-04-24T10:00:46;94583.44;;;14.66;60.52
40946;BME280;55635;50.264;11.918;2023-04-24T10:03:30;94582.88;;;14.53;61.55
40946;BME280;55635;50.264;11.918;2023-04-24T10:06:14;94573.13;;;14.47;57.71
40946;BME280;55635;50.264;11.918;2023-04-24T10:08:56;94580.94;;;14.88;57.65
40946;BME280;55635;50.264;11.918;2023-04-24T10:11:43;94589.19;;;14.87;55.69
40946;BME280;55635;50.264;11.918;2023-04-24T10:14:26;94584.09;;;14.85;56.28
40946;BME280;55635;50.264;11.918;2023-04-24T10:17:07;94587.41;;;14.92;57.38
40946;BME280;55635;50.264;11.918;2023-04-24T10:19:53;94590.63;;;15.34;56.24
40946;BME280;55635;50.264;11.918;2023-04-24T10:22:35;94584.56;;;15.50;56.75
40946;BME280;55635;50.264;11.918;2023-04-24T10:25:21;94596.94;;;15.28;57.29
40946;BME280;55635;50.264;11.918;2023-04-24T10:28:05;94596.97;;;14.88;58.34
40946;BME280;55635;50.264;11.918;2023-04-24T10:30:47;94598.63;;;14.66;59.37
40946;BME280;55635;50.264;11.918;2023-04-24T10:33:30;94603.97;;;15.06;57.64
40946;BME280;55635;50.264;11.918;2023-04-24T10:36:13;94607.13;;;15.03;57.89
40946;BME280;55635;50.264;11.918;2023-04-24T10:38:56;94599.59;;;15.28;58.96
40946;BME280;55635;50.264;11.918;2023-04-24T10:41:39;94591.75;;;15.50;59.05
40946;BME280;55635;50.264;11.918;2023-04-24T10:44:22;94604.31;;;15.09;63.19
40946;BME280;55635;50.264;11.918;2023-04-24T10:47:03;94597.09;;;15.66;54.38
40946;BME280;55635;50.264;11.918;2023-04-24T10:49:44;94601.03;;;15.47;58.09
40946;BME280;55635;50.264;11.918;2023-04-24T10:52:44;94606.16;;;15.49;56.42
40946;BME280;55635;50.264;11.918;2023-04-24T10:58:24;94610.53;;;13.71;63.83
40946;BME280;55635;50.264;11.918;2023-04-24T11:01:05;94618.28;;;14.37;59.32
40946;BME280;55635;50.264;11.918;2023-04-24T11:03:55;94601.56;;;14.64;59.37
40946;BME280;55635;50.264;11.918;2023-04-24T11:06:37;94614.53;;;14.73;58.96
40946;BME280;55635;50.264;11.918;2023-04-24T11:09:20;94615.34;;;14.50;58.37
40946;BME280;55635;50.264;11.918;2023-04-24T11:12:06;94623.13;;;14.51;58.44
40946;BME280;55635;50.264;11.918;2023-04-24T11:17:38;94611.50;;;14.23;58.56
40946;BME280;55635;50.264;11.918;2023-04-24T11:20:23;94623.25;;;14.33;58.67
40946;BME280;55635;50.264;11.918;2023-04-24T11:23:13;94623.66;;;14.88;57.28
40946;BME280;55635;50.264;11.918;2023-04-24T11:28:53;94624.16;;;15.42;57.65
40946;BME280;55635;50.264;11.918;2023-04-24T11:31:40;94623.88;;;15.83;56.28
40946;BME280;55635;50.264;11.918;2023-04-24T11:34:33;94616.22;;;16.97;54.79
40946;BME280;55635;50.264;11.918;2023-04-24T11:37:14;94633.69;;;17.04;55.00
40946;BME280;55635;50.264;11.918;2023-04-24T11:39:58;94634.31;;;15.85;57.57
40946;BME280;55635;50.264;11.918;2023-04-24T11:42:44;94622.50;;;15.81;56.37
40946;BME280;55635;50.264;11.918;2023-04-24T11:45:28;94627.34;;;14.87;61.97
40946;BME280;55635;50.264;11.918;2023-04-24T11:48:09;94629.84;;;16.40;59.51
40946;BME280;55635;50.264;11.918;2023-04-24T11:50:52;94629.53;;;16.20;55.01
40946;BME280;55635;50.264;11.918;2023-04-24T11:53:33;94636.00;;;15.46;56.31
40946;BME280;55635;50.264;11.918;2023-04-24T11:56:18;94646.97;;;14.81;56.15
40946;BME280;55635;50.264;11.918;2023-04-24T11:59:00;94644.31;;;14.81;59.92
40946;BME280;55635;50.264;11.918;2023-04-24T12:01:48;94643.75;;;15.59;58.87
40946;BME280;55635;50.264;11.918;2023-04-24T12:04:41;94632.25;;;15.58;55.76
40946;BME280;55635;50.264;11.918;2023-04-24T12:07:23;94641.91;;;15.19;60.48
40946;BME280;55635;50.264;11.918;2023-04-24T12:10:05;94633.53;;;15.44;61.79
40946;BME280;55635;50.264;11.918;2023-04-24T12:12:49;94624.75;;;16.22;56.18
40946;BME280;55635;50.264;11.918;2023-04-24T12:15:31;94644.25;;;15.16;55.04
40946;BME280;55635;50.264;11.918;2023-04-24T12:18:12;94621.16;;;15.38;57.29
40946;BME280;55635;50.264;11.918;2023-04-24T12:20:54;94634.44;;;15.78;54.90
40946;BME280;55635;50.264;11.918;2023-04-24T12:23:43;94624.09;;;15.82;55.68
40946;BME280;55635;50.264;11.918;2023-04-24T12:26:27;94637.91;;;15.34;58.07
40946;BME280;55635;50.264;11.918;2023-04-24T12:29:07;94668.25;;;14.41;55.54
40946;BME280;55635;50.264;11.918;2023-04-24T12:31:53;94641.91;;;14.45;58.51
40946;BME280;55635;50.264;11.918;2023-04-24T12:34:34;94630.91;;;14.64;56.10
40946;BME280;55635;50.264;11.918;2023-04-24T12:37:15;94632.75;;;15.44;54.42
40946;BME280;55635;50.264;11.918;2023-04-24T12:40:06;94637.16;;;15.95;57.90
40946;BME280;55635;50.264;11.918;2023-04-24T12:42:50;94635.75;;;15.75;53.67
40946;BME280;55635;50.264;11.918;2023-04-24T12:45:31;94638.84;;;16.01;52.84
40946;BME280;55635;50.264;11.918;2023-04-24T12:48:12;94634.31;;;15.85;56.45
40946;BME280;55635;50.264;11.918;2023-04-24T12:50:55;94639.50;;;17.18;49.93
40946;BME280;55635;50.264;11.918;2023-04-24T12:53:37;94638.06;;;17.80;49.55
40946;BME280;55635;50.264;11.918;2023-04-24T12:56:18;94644.97;;;18.03;49.00
40946;BME280;55635;50.264;11.918;2023-04-24T12:58:59;94636.03;;;16.57;51.37
40946;BME280;55635;50.264;11.918;2023-04-24T13:01:41;94640.00;;;17.58;51.80
40946;BME280;55635;50.264;11.918;2023-04-24T13:04:25;94643.97;;;17.56;49.91
40946;BME280;55635;50.264;11.918;2023-04-24T13:07:06;94643.88;;;17.72;49.05
40946;BME280;55635;50.264;11.918;2023-04-24T13:09:49;94646.16;;;16.55;51.91
40946;BME280;55635;50.264;11.918;2023-04-24T13:12:57;94634.75;;;16.48;50.02
40946;BME280;55635;50.264;11.918;2023-04-24T13:15:38;94642.75;;;16.10;49.49
40946;BME280;55635;50.264;11.918;2023-04-24T13:18:18;94636.25;;;16.06;51.76
40946;BME280;55635;50.264;11.918;2023-04-24T13:21:00;94648.28;;;15.75;53.40
40946;BME280;55635;50.264;11.918;2023-04-24T13:23:44;94628.09;;;15.11;51.90
40946;BME280;55635;50.264;11.918;2023-04-24T13:26:25;94652.50;;;15.03;54.21
40946;BME280;55635;50.264;11.918;2023-04-24T13:29:06;94647.56;;;14.83;55.71
40946;BME280;55635;50.264;11.918;2023-04-24T13:31:47;94666.72;;;14.68;58.26
40946;BME280;55635;50.264;11.918;2023-04-24T13:34:28;94655.03;;;14.35;55.47
40946;BME280;55635;50.264;11.918;2023-04-24T13:37:09;94658.13;;;14.78;54.30
40946;BME280;55635;50.264;11.918;2023-04-24T13:39:50;94650.56;;;14.87;53.19
40946;BME280;55635;50.264;11.918;2023-04-24T13:42:31;94658.84;;;14.50;55.27
40946;BME280;55635;50.264;11.918;2023-04-24T13:45:12;94655.56;;;14.95;55.64
40946;BME280;55635;50.264;11.918;2023-04-24T13:47:53;94653.28;;;15.15;53.83
40946;BME280;55635;50.264;11.918;2023-04-24T13:50:34;94656.56;;;15.05;52.65
40946;BME280;55635;50.264;11.918;2023-04-24T13:53:15;94653.97;;;15.62;53.57
40946;BME280;55635;50.264;11.918;2023-04-24T13:55:56;94657.19;;;15.64;56.99
40946;BME280;55635;50.264;11.918;2023-04-24T13:58:38;94656.34;;;15.35;52.91
40946;BME280;55635;50.264;11.918;2023-04-24T14:01:19;94668.47;;;14.51;54.64
40946;BME280;55635;50.264;11.918;2023-04-24T14:04:02;94654.75;;;14.71;54.50
40946;BME280;55635;50.264;11.918;2023-04-24T14:06:44;94660.69;;;14.85;51.99
40946;BME280;55635;50.264;11.918;2023-04-24T14:09:26;94648.72;;;15.27;53.01
40946;BME280;55635;50.264;11.918;2023-04-24T14:12:31;94657.44;;;15.62;53.00
40946;BME280;55635;50.264;11.918;2023-04-24T14:15:12;94658.28;;;15.51;53.14
40946;BME280;55635;50.264;11.918;2023-04-24T14:17:54;94661.97;;;16.07;52.22
40946;BME280;55635;50.264;11.918;2023-04-24T14:20:34;94658.56;;;15.66;52.66
40946;BME280;55635;50.264;11.918;2023-04-24T14:23:16;94647.84;;;15.10;51.47